»·PEaware :: N5268J KBUR-KFUL

N5268J :: KBUR-KFUL

FLIGHT INFORMATION

Flight Status: Arrived
Operator: Privately registered:
United States
More flights under this callsign
Pilot: John P. (31881)
Aircraft: BEECH AIRCRAFT BONANZA
(BE36)
More flights by this aircraft type
Origin: KBUR Bob Hope-Burbank
United States
Destination: KFUL Fullerton Mun
United States
More flights between these airports :: More routes between these airports
Route: BUR VPLRB ELM VPLSC FUL
File this flight plan on PilotEdge
Remarks: Via Flyways
Altitude:
(Current/Filed)
3,500ft
Speed:
(Current/Filed)
167kts
Departed: 21-Oct-20 06:43 PM
Arrived: 21-Oct-20 07:46 PM
Distance/Time
Traveled:
6789nm/1:02
Distance/Time
To Go:
Arrived

Flight Plot

Page will automatically refresh every two minutes.

Flight plan parsing failed; only flown route is shown


Map Options




Map Legend


Flown Route
Filed Route
Departure Airport
Arrival Airport
Navaid (VOR, NDB)
Fix

Horizontal Profiles

Position Reports

Time Latitude Longitude Heading Altitude Ground
Speed
21-Oct-20 18:12 0.000408 0.013975 359 3ft 0kts
21-Oct-20 18:14 0.000408 0.013975 359 3ft 0kts
21-Oct-20 18:15 0.000408 0.013975 359 3ft 0kts
21-Oct-20 18:16 34.196322 -118.367133 359 722ft 0kts
21-Oct-20 18:17 34.196322 -118.367133 359 722ft 0kts
21-Oct-20 18:18 34.196322 -118.367133 359 722ft 0kts
21-Oct-20 18:19 34.196322 -118.367133 359 727ft 0kts
21-Oct-20 18:20 34.196322 -118.367133 359 727ft 0kts
21-Oct-20 18:21 34.196322 -118.367133 359 727ft 0kts
21-Oct-20 18:22 34.196322 -118.367133 359 727ft 0kts
21-Oct-20 18:23 34.196322 -118.367133 359 727ft 0kts
21-Oct-20 18:24 34.196322 -118.367133 359 727ft 0kts
21-Oct-20 18:25 34.196322 -118.367133 359 727ft 0kts
21-Oct-20 18:26 34.196322 -118.367133 359 727ft 0kts
21-Oct-20 18:27 34.196322 -118.367133 359 727ft 0kts
21-Oct-20 18:28 34.196322 -118.367133 359 727ft 0kts
21-Oct-20 18:29 34.196322 -118.367133 359 727ft 0kts
21-Oct-20 18:30 34.196322 -118.367133 359 727ft 0kts
21-Oct-20 18:31 34.196322 -118.367133 359 727ft 0kts
21-Oct-20 18:32 34.196322 -118.367133 359 727ft 0kts
21-Oct-20 18:33 34.196322 -118.367133 359 727ft 0kts
21-Oct-20 18:34 34.196322 -118.367133 359 727ft 0kts
21-Oct-20 18:35 34.196322 -118.367133 359 727ft 0kts
21-Oct-20 18:36 34.196322 -118.367133 359 727ft 0kts
21-Oct-20 18:37 34.196322 -118.367133 359 727ft 0kts
21-Oct-20 18:38 34.196374 -118.367080 86 727ft 0kts
21-Oct-20 18:39 34.196934 -118.366991 269 727ft 12kts
21-Oct-20 18:40 34.197094 -118.368872 327 729ft 0kts
21-Oct-20 18:41 34.197893 -118.368174 90 727ft 32kts
21-Oct-20 18:42 34.196061 -118.336001 96 1248ft 128kts
21-Oct-20 18:43 34.167345 -118.317052 146 2150ft 146kts
21-Oct-20 18:44 34.134623 -118.282641 135 2455ft 157kts
21-Oct-20 18:45 34.105218 -118.248431 136 3344ft 143kts
21-Oct-20 18:46 34.103664 -118.234421 272 2829ft 177kts
21-Oct-20 18:47 0.000408 0.013975 359 3ft 0kts
21-Oct-20 18:48 0.000408 0.013975 359 3ft 0kts
21-Oct-20 18:49 0.000408 0.013975 359 3ft 0kts
21-Oct-20 18:50 0.000408 0.013975 359 3ft 0kts
21-Oct-20 18:51 0.000408 0.013975 359 3ft 0kts
21-Oct-20 18:52 0.000408 0.013975 359 3ft 0kts
21-Oct-20 18:53 0.000408 0.013975 359 3ft 0kts
21-Oct-20 18:54 0.000408 0.013975 359 3ft 0kts
21-Oct-20 18:55 0.000408 0.013975 359 3ft 0kts
21-Oct-20 18:56 34.196514 -118.366900 354 722ft 0kts
21-Oct-20 18:57 34.196514 -118.366900 354 722ft 0kts
21-Oct-20 18:58 34.196514 -118.366900 354 726ft 0kts
21-Oct-20 18:59 34.196514 -118.366900 354 726ft 0kts
21-Oct-20 19:00 34.196514 -118.366900 354 726ft 0kts
21-Oct-20 19:01 34.196514 -118.366900 354 726ft 0kts
21-Oct-20 19:02 34.196514 -118.366900 354 726ft 0kts
21-Oct-20 19:03 34.196514 -118.366900 354 726ft 0kts
21-Oct-20 19:04 34.196514 -118.366900 354 726ft 0kts
21-Oct-20 19:05 34.196514 -118.366900 354 726ft 0kts
21-Oct-20 19:06 34.196514 -118.366900 354 726ft 0kts
21-Oct-20 19:07 34.196514 -118.366900 354 726ft 0kts
21-Oct-20 19:08 34.196514 -118.366900 354 726ft 0kts
21-Oct-20 19:09 34.196514 -118.366900 354 726ft 0kts
21-Oct-20 19:10 34.196514 -118.366900 354 726ft 0kts
21-Oct-20 19:11 34.196514 -118.366900 354 726ft 0kts
21-Oct-20 19:12 34.196514 -118.366900 354 726ft 0kts
21-Oct-20 19:13 34.196514 -118.366900 354 726ft 0kts
21-Oct-20 19:14 34.196514 -118.366900 354 726ft 0kts
21-Oct-20 19:15 34.196514 -118.366900 354 726ft 0kts
21-Oct-20 19:16 34.196514 -118.366900 354 726ft 0kts
21-Oct-20 19:17 34.196514 -118.366900 354 726ft 0kts
21-Oct-20 19:18 34.196514 -118.366900 354 726ft 0kts
21-Oct-20 19:19 34.196514 -118.366899 354 726ft 0kts
21-Oct-20 19:20 34.196514 -118.366900 354 726ft 0kts
21-Oct-20 19:21 34.196514 -118.366899 354 726ft 0kts
21-Oct-20 19:22 34.196514 -118.366899 354 726ft 0kts
21-Oct-20 19:23 34.196514 -118.366899 354 726ft 0kts
21-Oct-20 19:24 34.196558 -118.366907 349 726ft 5kts
21-Oct-20 19:25 34.197083 -118.368888 327 729ft 0kts
21-Oct-20 19:26 34.197083 -118.368888 327 729ft 0kts
21-Oct-20 19:27 34.197879 -118.353962 91 871ft 105kts
21-Oct-20 19:28 34.183264 -118.322951 132 1993ft 116kts
21-Oct-20 19:29 34.160369 -118.289901 96 2176ft 140kts
21-Oct-20 19:30 34.175021 -118.250768 87 3223ft 120kts
21-Oct-20 19:31 34.168515 -118.202433 104 3479ft 165kts
21-Oct-20 19:32 34.151233 -118.149879 122 3484ft 172kts
21-Oct-20 19:33 34.123877 -118.101643 124 3355ft 179kts
21-Oct-20 19:34 34.097353 -118.054861 124 3170ft 160kts
21-Oct-20 19:35 34.065350 -118.019445 147 3166ft 157kts
21-Oct-20 19:36 34.028061 -117.992178 148 3164ft 157kts
21-Oct-20 19:37 33.990706 -117.964747 148 3164ft 157kts
21-Oct-20 19:38 33.947894 -117.962016 182 3163ft 158kts
21-Oct-20 19:39 33.903931 -117.964702 185 3164ft 157kts
21-Oct-20 19:40 33.861163 -117.981971 172 2221ft 170kts
21-Oct-20 19:41 33.836844 -117.985508 15 1859ft 136kts
21-Oct-20 19:42 33.867949 -118.004552 336 1115ft 129kts
21-Oct-20 19:43 33.889122 -117.971807 74 820ft 110kts
21-Oct-20 19:44 33.873299 -117.972711 258 234ft 98kts
21-Oct-20 19:45 33.872154 -117.981383 349 89ft 0kts
21-Oct-20 19:46 33.872371 -117.981448 327 89ft 11kts
21-Oct-20 19:47 33.872621 -117.981682 356 89ft 0kts
21-Oct-20 19:48 0.000408 0.013975 0 3ft 0kts
21-Oct-20 19:50 0.000408 0.013975 0 3ft 0kts
21-Oct-20 19:51 0.000408 0.013975 0 3ft 0kts
21-Oct-20 19:52 0.000408 0.013975 0 3ft 0kts
21-Oct-20 19:53 0.000408 0.013975 0 3ft 0kts
21-Oct-20 19:54 0.000408 0.013975 0 3ft 0kts
21-Oct-20 19:55 0.000408 0.013975 0 3ft 0kts
21-Oct-20 19:56 0.000408 0.013975 0 3ft 0kts
21-Oct-20 19:57 0.000408 0.013975 0 3ft 0kts
21-Oct-20 19:58 0.000408 0.013975 0 3ft 0kts
21-Oct-20 19:59 0.000408 0.013975 0 3ft 0kts
21-Oct-20 20:00 0.000408 0.013975 0 3ft 0kts

Navigation Log

Ident Type
Flight plan parsing failed, navigation log unavailable